Time;durP1;ratioP1;P1;durP2;ratioP2;P2;SDS_P1;SDS_P2;PMS_P1;PMS_P2;Temp;Humidity;BMP_temperature;BMP_pressure;BME280_temperature;BME280_humidity;BME280_pressure;Samples;Min_cycle;Max_cycle;Signal;HPM_P1;HPM_P2
2024/01/23 00:02:04;;;;;;;19.75;16.27;;;;;;;7.98;100.00;100115.69;5095110;28;20073;-50
2024/01/23 00:04:29;;;;;;;26.35;20.67;;;;;;;8.16;100.00;100118.34;5095095;28;20016;-49
2024/01/23 00:06:55;;;;;;;27.08;18.90;;;;;;;8.33;100.00;100127.16;5094996;28;20059;-49
2024/01/23 00:09:21;;;;;;;27.60;23.38;;;;;;;8.46;100.00;100113.72;5095174;28;20028;-49
2024/01/23 00:11:47;;;;;;;36.53;32.65;;;;;;;8.40;100.00;100111.69;5094940;28;20031;-50
2024/01/23 00:14:13;;;;;;;26.67;23.52;;;;;;;8.24;100.00;100107.13;5094831;28;20494;-49
2024/01/23 00:16:38;;;;;;;36.05;27.58;;;;;;;8.11;100.00;100114.50;5093777;28;20135;-49
2024/01/23 00:19:04;;;;;;;39.53;35.22;;;;;;;8.11;100.00;100111.91;5094748;28;20039;-49
2024/01/23 00:21:30;;;;;;;30.60;26.65;;;;;;;8.11;100.00;100107.50;5093421;28;20062;-50
2024/01/23 00:23:57;;;;;;;39.63;35.55;;;;;;;8.08;100.00;100109.59;5094645;28;20395;-50
2024/01/23 00:26:23;;;;;;;23.33;17.05;;;;;;;7.93;100.00;100096.22;5093345;28;20039;-50
2024/01/23 00:28:49;;;;;;;21.48;14.98;;;;;;;7.79;100.00;100103.59;5094519;28;20036;-50
2024/01/23 00:31:14;;;;;;;33.47;29.35;;;;;;;7.74;100.00;100099.78;5093151;28;20052;-50
2024/01/23 00:33:40;;;;;;;34.88;31.17;;;;;;;7.90;100.00;100101.75;5094540;28;20066;-50
2024/01/23 00:36:06;;;;;;;40.47;36.13;;;;;;;7.94;100.00;100097.84;5094412;28;20039;-50
2024/01/23 00:38:32;;;;;;;22.83;16.50;;;;;;;7.92;100.00;100105.84;5093409;28;20478;-50
2024/01/23 00:40:58;;;;;;;24.67;20.70;;;;;;;7.85;100.00;100102.19;5093025;28;20165;-50
2024/01/23 00:43:23;;;;;;;22.70;17.10;;;;;;;7.92;100.00;100112.88;5092898;28;20028;-50
2024/01/23 00:45:50;;;;;;;29.45;23.33;;;;;;;8.05;100.00;100110.72;5094230;28;20035;-49
2024/01/23 00:48:15;;;;;;;25.35;19.75;;;;;;;8.13;100.00;100115.19;5092905;28;20020;-50
2024/01/23 00:50:41;;;;;;;18.85;14.15;;;;;;;8.14;100.00;100112.44;5092887;28;20027;-49
2024/01/23 00:53:07;;;;;;;75.75;68.28;;;;;;;8.15;100.00;100106.25;5094161;28;20146;-49
2024/01/23 00:55:33;;;;;;;20.33;16.27;;;;;;;8.24;100.00;100103.69;5094107;28;20017;-49
2024/01/23 00:57:58;;;;;;;18.15;13.90;;;;;;;8.20;100.00;100106.59;5094012;28;20028;-50
2024/01/23 01:00:24;;;;;;;22.65;19.00;;;;;;;8.22;100.00;100118.72;5094021;28;20031;-50
2024/01/23 01:02:50;;;;;;;17.35;14.80;;;;;;;8.26;100.00;100117.44;5093909;28;20060;-50
2024/01/23 01:05:16;;;;;;;17.42;13.85;;;;;;;8.26;100.00;100130.53;5093858;28;20027;-49
2024/01/23 01:07:43;;;;;;;18.80;13.35;;;;;;;8.37;100.00;100138.97;5093889;28;20032;-50
2024/01/23 01:10:09;;;;;;;19.83;16.55;;;;;;;8.55;100.00;100130.31;5093794;28;20481;-50
2024/01/23 01:12:35;;;;;;;17.70;12.90;;;;;;;8.58;100.00;100136.06;5092616;28;20040;-50
2024/01/23 01:15:01;;;;;;;38.90;34.70;;;;;;;8.63;100.00;100137.41;5093892;28;20051;-50
2024/01/23 01:17:27;;;;;;;19.67;16.10;;;;;;;8.62;100.00;100128.72;5093699;28;20050;-50
2024/01/23 01:19:53;;;;;;;39.75;34.08;;;;;;;8.69;100.00;100124.56;5093567;28;20024;-49
2024/01/23 01:22:19;;;;;;;19.38;14.10;;;;;;;8.66;100.00;100135.31;5093729;28;20024;-50
2024/01/23 01:24:45;;;;;;;17.48;13.25;;;;;;;8.59;100.00;100148.19;5093555;28;20498;-50
2024/01/23 01:27:11;;;;;;;18.52;13.63;;;;;;;8.57;100.00;100165.00;5093426;28;20020;-50
2024/01/23 01:29:36;;;;;;;20.98;15.45;;;;;;;8.64;100.00;100165.22;5093283;28;20090;-50
2024/01/23 01:32:02;;;;;;;16.10;13.18;;;;;;;8.71;100.00;100176.72;5093893;28;20020;-50
2024/01/23 01:34:28;;;;;;;44.25;40.03;;;;;;;8.81;100.00;100187.91;5093337;28;20032;-49
2024/01/23 01:36:54;;;;;;;15.60;14.00;;;;;;;8.92;100.00;100185.06;5075229;28;20035;-49
2024/01/23 01:39:20;;;;;;;15.52;12.35;;;;;;;8.85;100.00;100186.66;5093206;28;20389;-50
2024/01/23 01:42:12;;;;;;;15.43;12.55;;;;;;;8.66;100.00;100216.44;5093157;28;20427;-49
2024/01/23 01:44:38;;;;;;;16.80;15.05;;;;;;;8.66;100.00;100216.44;5092763;28;20040;-50
2024/01/23 01:47:04;;;;;;;16.75;15.05;;;;;;;8.55;100.00;100214.03;5093028;28;20559;-49
2024/01/23 01:49:30;;;;;;;14.75;12.73;;;;;;;8.55;100.00;100212.25;5093101;28;20024;-50
2024/01/23 01:51:56;;;;;;;43.08;38.95;;;;;;;8.54;100.00;100218.44;5092913;28;20454;-49
2024/01/23 01:54:23;;;;;;;113.13;98.10;;;;;;;8.44;100.00;100216.88;5091569;28;20028;-50
2024/01/23 01:56:52;;;;;;;35.05;26.52;;;;;;;8.24;100.00;100222.22;5092869;28;20031;-50
2024/01/23 01:59:20;;;;;;;25.65;19.10;;;;;;;8.10;100.00;100228.75;5091507;28;20440;-49
2024/01/23 02:01:46;;;;;;;29.55;18.15;;;;;;;7.89;100.00;100226.38;5091806;28;20055;-50
2024/01/23 02:04:13;;;;;;;31.80;24.42;;;;;;;7.78;100.00;100222.16;5091318;28;20605;-49
2024/01/23 02:06:38;;;;;;;36.05;32.33;;;;;;;7.89;100.00;100222.97;5091332;28;20032;-50
2024/01/23 02:09:04;;;;;;;19.65;16.90;;;;;;;7.97;100.00;100217.84;5092170;28;20524;-50
2024/01/23 02:11:30;;;;;;;36.78;32.95;;;;;;;7.98;100.00;100233.34;5092552;28;20031;-49
2024/01/23 02:13:56;;;;;;;59.40;53.47;;;;;;;7.95;100.00;100238.88;5092599;28;20024;-50
2024/01/23 02:16:22;;;;;;;109.68;98.75;;;;;;;7.90;100.00;100242.88;5092459;28;20012;-49
2024/01/23 02:18:48;;;;;;;46.55;31.48;;;;;;;7.79;100.00;100234.28;5091129;28;20031;-50
2024/01/23 02:21:15;;;;;;;28.38;24.75;;;;;;;7.70;100.00;100236.91;5091081;28;20078;-49
2024/01/23 02:23:42;;;;;;;38.92;35.10;;;;;;;7.63;100.00;100254.97;5092370;28;20020;-50
2024/01/23 02:26:07;;;;;;;27.95;25.05;;;;;;;7.60;100.00;100250.00;5092349;28;20020;-50
2024/01/23 02:28:33;;;;;;;15.52;13.65;;;;;;;7.65;100.00;100260.06;5092127;28;20077;-49
2024/01/23 02:31:02;;;;;;;18.60;13.30;;;;;;;7.60;100.00;100252.63;5091073;28;20541;-50
2024/01/23 02:33:28;;;;;;;15.85;11.65;;;;;;;7.55;100.00;100258.28;5090937;28;20028;-49
2024/01/23 02:35:54;;;;;;;16.50;11.35;;;;;;;7.47;100.00;100252.94;5092229;28;20167;-50
2024/01/23 02:38:19;;;;;;;19.67;14.07;;;;;;;7.49;100.00;100268.47;5090872;28;20026;-49
2024/01/23 02:40:45;;;;;;;20.15;12.98;;;;;;;7.47;100.00;100276.44;5092213;28;20020;-48
2024/01/23 02:43:11;;;;;;;14.40;10.75;;;;;;;7.57;100.00;100268.59;5092023;28;20065;-48
2024/01/23 02:45:37;;;;;;;14.55;11.07;;;;;;;7.69;100.00;100270.06;5092103;28;20032;-47
2024/01/23 02:48:03;;;;;;;17.40;10.95;;;;;;;7.97;100.00;100272.72;5092116;28;20030;-48
2024/01/23 02:50:29;;;;;;;13.65;10.02;;;;;;;8.16;100.00;100269.19;5092042;28;20034;-48
2024/01/23 02:52:55;;;;;;;29.02;19.55;;;;;;;8.26;100.00;100272.56;5092084;28;20024;-48
2024/01/23 02:55:20;;;;;;;18.50;11.85;;;;;;;8.25;100.00;100280.56;5091977;28;20032;-48
2024/01/23 02:57:46;;;;;;;28.20;18.35;;;;;;;8.24;100.00;100278.94;5091999;28;20024;-48
2024/01/23 03:00:12;;;;;;;28.20;17.17;;;;;;;8.22;100.00;100280.88;5090567;28;20024;-48
2024/01/23 03:02:38;;;;;;;27.90;21.88;;;;;;;8.22;100.00;100291.31;5091843;28;20028;-48
2024/01/23 03:05:04;;;;;;;37.83;26.42;;;;;;;8.12;100.00;100289.56;5091886;28;20036;-47
2024/01/23 03:07:32;;;;;;;21.27;14.77;;;;;;;8.00;100.00;100286.31;5090582;28;20560;-47
2024/01/23 03:09:58;;;;;;;17.73;13.52;;;;;;;7.91;100.00;100275.91;5090584;28;20489;-48
2024/01/23 03:12:24;;;;;;;15.63;12.30;;;;;;;7.85;100.00;100274.69;5091820;28;20035;-48
2024/01/23 03:14:50;;;;;;;17.30;13.40;;;;;;;7.73;100.00;100281.88;5090439;28;20043;-48
2024/01/23 03:17:17;;;;;;;21.25;14.50;;;;;;;7.46;100.00;100282.63;5090480;28;20035;-47
2024/01/23 03:19:43;;;;;;;23.85;15.95;;;;;;;7.42;100.00;100286.47;5091826;28;20032;-47
2024/01/23 03:22:10;;;;;;;17.15;14.25;;;;;;;7.29;100.00;100278.13;5095549;28;20020;-48
2024/01/23 03:24:40;;;;;;;16.92;13.95;;;;;;;7.33;100.00;100276.91;5094561;28;20027;-47
2024/01/23 03:27:06;;;;;;;26.88;15.85;;;;;;;7.32;100.00;100270.81;5095737;28;20020;-48
2024/01/23 03:29:45;;;;;;;22.63;14.50;;;;;;;7.29;100.00;100265.91;5095614;28;20051;-48
2024/01/23 03:32:11;;;;;;;18.42;12.48;;;;;;;7.36;100.00;100268.75;5095761;28;20501;-47
2024/01/23 03:34:38;;;;;;;11.48;8.90;;;;;;;7.64;100.00;100259.22;5094416;28;20025;-48
2024/01/23 03:37:04;;;;;;;12.98;8.93;;;;;;;7.66;100.00;100259.88;5095616;28;20513;-48
2024/01/23 03:39:30;;;;;;;12.80;8.90;;;;;;;7.66;100.00;100265.13;5095571;28;20031;-48
2024/01/23 03:41:57;;;;;;;14.13;8.70;;;;;;;7.69;100.00;100259.63;5095525;28;20032;-47
2024/01/23 03:44:24;;;;;;;10.00;7.95;;;;;;;7.75;100.00;100255.63;5094142;28;20103;-48
2024/01/23 03:46:51;;;;;;;9.85;8.65;;;;;;;7.90;100.00;100259.38;5095398;28;20023;-48
2024/01/23 03:49:17;;;;;;;12.52;7.15;;;;;;;7.89;100.00;100259.56;5111115;28;20078;-48
2024/01/23 03:51:44;;;;;;;10.60;6.57;;;;;;;7.91;100.00;100261.06;5111070;28;20028;-48
2024/01/23 03:54:10;;;;;;;13.38;7.35;;;;;;;8.02;100.00;100262.66;5095279;28;20036;-47
2024/01/23 03:56:36;;;;;;;11.93;7.50;;;;;;;8.23;100.00;100262.41;5095281;28;20031;-47
2024/01/23 03:59:02;;;;;;;10.27;7.47;;;;;;;8.25;100.00;100263.09;5095185;28;20016;-47
2024/01/23 04:01:28;;;;;;;15.07;7.97;;;;;;;8.21;100.00;100269.59;5095341;28;20513;-47
2024/01/23 04:03:54;;;;;;;13.25;8.57;;;;;;;8.34;100.00;100262.19;5111034;28;20031;-47
2024/01/23 04:06:19;;;;;;;17.83;9.68;;;;;;;8.51;100.00;100275.47;5095013;28;20020;-47
2024/01/23 04:08:45;;;;;;;12.65;9.60;;;;;;;8.56;100.00;100275.88;5110708;28;20455;-47
2024/01/23 04:11:11;;;;;;;10.70;8.98;;;;;;;8.58;100.00;100277.38;5094919;28;20021;-48
2024/01/23 04:13:37;;;;;;;10.45;9.13;;;;;;;8.54;100.00;100280.44;5094929;28;20024;-48
2024/01/23 04:16:05;;;;;;;11.65;9.93;;;;;;;8.51;100.00;100268.47;5110629;28;20024;-48
2024/01/23 04:18:32;;;;;;;13.18;10.05;;;;;;;8.34;100.00;100269.22;5094839;28;20012;-47
2024/01/23 04:20:58;;;;;;;96.68;87.40;;;;;;;8.20;100.00;100263.50;5093717;28;20181;-48
2024/01/23 04:23:24;;;;;;;16.17;12.77;;;;;;;8.13;100.00;100259.84;5094668;28;20581;-50
2024/01/23 04:25:50;;;;;;;13.70;11.60;;;;;;;7.98;100.00;100269.94;5094648;28;20043;-49
2024/01/23 04:28:15;;;;;;;13.95;10.43;;;;;;;8.17;100.00;100274.28;5093103;28;20044;-50
2024/01/23 04:30:42;;;;;;;19.48;12.85;;;;;;;8.32;100.00;100265.94;5094840;28;20390;-49
2024/01/23 04:33:08;;;;;;;15.10;10.57;;;;;;;8.31;100.00;100265.13;5094463;28;20031;-49
2024/01/23 04:35:34;;;;;;;15.95;12.27;;;;;;;8.31;100.00;100274.75;5093263;28;20118;-49
2024/01/23 04:38:00;;;;;;;13.07;10.90;;;;;;;8.25;100.00;100278.78;5093183;28;20039;-50
2024/01/23 04:40:26;;;;;;;16.05;11.20;;;;;;;8.20;100.00;100279.19;5094742;28;20023;-50
2024/01/23 04:42:52;;;;;;;13.07;11.07;;;;;;;8.18;100.00;100273.28;5093027;28;20024;-49
2024/01/23 04:45:18;;;;;;;13.90;11.18;;;;;;;7.99;100.00;100268.19;5094302;28;20031;-50
2024/01/23 04:47:43;;;;;;;11.57;9.43;;;;;;;7.71;100.00;100265.53;5092980;28;20070;-50
2024/01/23 04:50:10;;;;;;;11.07;8.73;;;;;;;7.87;100.00;100269.31;5094211;28;20020;-50
2024/01/23 04:52:35;;;;;;;12.07;8.85;;;;;;;7.99;100.00;100276.84;5094088;28;20035;-50
2024/01/23 04:55:02;;;;;;;18.38;8.85;;;;;;;8.07;100.00;100280.50;5109876;28;20021;-50
2024/01/23 04:57:31;;;;;;;11.82;8.68;;;;;;;7.90;100.00;100280.31;5094009;28;20024;-49
2024/01/23 04:59:58;;;;;;;11.00;9.05;;;;;;;7.80;100.00;100284.75;5094041;28;20027;-50
2024/01/23 05:02:24;;;;;;;15.48;9.20;;;;;;;7.77;100.00;100287.66;5093830;28;20081;-50
2024/01/23 05:04:50;;;;;;;14.25;9.23;;;;;;;7.94;100.00;100283.47;5109562;28;20530;-50
2024/01/23 05:07:16;;;;;;;12.65;10.07;;;;;;;7.99;100.00;100289.09;5093880;28;20047;-49
2024/01/23 05:09:42;;;;;;;13.05;9.25;;;;;;;7.90;100.00;100289.94;5092533;28;20397;-50
2024/01/23 05:12:09;;;;;;;15.20;12.10;;;;;;;7.85;100.00;100293.00;5093799;28;20030;-49
2024/01/23 05:14:34;;;;;;;15.40;10.68;;;;;;;8.07;100.00;100301.41;5093735;28;20031;-49
2024/01/23 05:17:00;;;;;;;12.27;9.90;;;;;;;8.28;100.00;100311.66;5092386;28;20024;-49
2024/01/23 05:19:26;;;;;;;13.55;9.13;;;;;;;8.53;100.00;100307.56;5093637;28;20776;-49
2024/01/23 05:21:52;;;;;;;19.30;8.20;;;;;;;8.57;100.00;100299.28;5093641;28;20032;-50
2024/01/23 05:24:17;;;;;;;13.80;9.27;;;;;;;8.69;100.00;100307.75;5093406;28;20482;-49
2024/01/23 05:26:43;;;;;;;14.70;10.23;;;;;;;8.78;100.00;100306.03;5093770;28;20020;-50
2024/01/23 05:29:09;;;;;;;11.52;10.07;;;;;;;8.79;100.00;100310.28;5093320;28;20094;-49
2024/01/23 05:31:34;;;;;;;16.58;10.75;;;;;;;8.88;100.00;100304.16;5093374;28;20028;-49
2024/01/23 05:34:03;;;;;;;18.10;14.10;;;;;;;8.84;100.00;100305.44;5093430;28;20076;-50
2024/01/23 05:36:29;;;;;;;18.92;14.75;;;;;;;8.72;100.00;100315.28;5093344;28;20024;-50
2024/01/23 05:38:54;;;;;;;16.60;11.57;;;;;;;8.54;100.00;100317.88;5091938;28;20031;-50
2024/01/23 05:41:20;;;;;;;16.50;11.65;;;;;;;8.49;100.00;100322.75;5093234;28;20018;-50
2024/01/23 05:43:46;;;;;;;14.63;10.95;;;;;;;8.37;100.00;100318.63;5092353;28;20080;-49
2024/01/23 05:46:12;;;;;;;18.17;10.85;;;;;;;8.29;100.00;100322.00;5092977;28;20046;-49
2024/01/23 05:48:38;;;;;;;21.40;13.88;;;;;;;8.20;100.00;100326.28;5091802;28;20028;-50
2024/01/23 05:51:03;;;;;;;14.98;11.82;;;;;;;8.07;100.00;100346.72;5092999;28;20402;-50
2024/01/23 05:53:29;;;;;;;12.80;9.90;;;;;;;7.89;100.00;100340.59;5091654;28;20032;-49
2024/01/23 05:55:55;;;;;;;12.15;8.90;;;;;;;7.77;100.00;100339.94;5108625;28;20024;-50
2024/01/23 05:58:21;;;;;;;19.20;14.38;;;;;;;7.77;100.00;100348.59;5092875;28;20413;-49
2024/01/23 06:00:46;;;;;;;18.75;15.77;;;;;;;7.69;100.00;100343.25;5092891;28;20028;-50
2024/01/23 06:03:12;;;;;;;16.85;13.80;;;;;;;7.75;100.00;100349.69;5091438;28;20040;-49
2024/01/23 06:05:38;;;;;;;20.75;13.32;;;;;;;7.88;100.00;100352.81;5092737;28;20398;-50
2024/01/23 06:08:04;;;;;;;17.58;11.48;;;;;;;8.13;100.00;100350.53;5092738;28;20035;-50
2024/01/23 06:10:30;;;;;;;20.75;11.63;;;;;;;8.33;100.00;100348.66;5091372;28;20032;-49
2024/01/23 06:12:55;;;;;;;17.67;10.35;;;;;;;8.46;100.00;100358.84;5092686;28;20039;-50
2024/01/23 06:15:21;;;;;;;15.77;11.43;;;;;;;8.56;100.00;100351.75;5091236;28;20146;-50
2024/01/23 06:17:47;;;;;;;14.13;10.70;;;;;;;8.62;100.00;100351.19;5092583;28;20104;-50
2024/01/23 06:20:13;;;;;;;28.88;24.63;;;;;;;8.50;100.00;100362.81;5091139;28;20417;-49
2024/01/23 06:22:40;;;;;;;18.08;12.02;;;;;;;8.56;100.00;100365.66;5091162;28;20035;-47
2024/01/23 06:25:07;;;;;;;20.25;12.45;;;;;;;8.60;100.00;100379.28;5092439;28;20066;-47
2024/01/23 06:27:33;;;;;;;18.38;12.45;;;;;;;8.61;100.00;100373.06;5091033;28;20028;-47
2024/01/23 06:29:59;;;;;;;22.40;13.32;;;;;;;8.65;100.00;100379.66;5092052;28;20048;-47
2024/01/23 06:32:27;;;;;;;38.40;22.40;;;;;;;8.74;100.00;100389.25;5092278;28;20047;-48
2024/01/23 06:34:53;;;;;;;24.33;13.10;;;;;;;8.90;100.00;100393.88;5092563;28;20436;-47
2024/01/23 06:37:19;;;;;;;18.67;11.13;;;;;;;8.99;100.00;100397.38;5092203;28;20068;-47
2024/01/23 06:39:46;;;;;;;26.52;13.15;;;;;;;8.89;100.00;100397.44;5092165;28;20027;-47
2024/01/23 06:42:11;;;;;;;22.13;13.00;;;;;;;8.95;100.00;100409.13;5090846;28;20379;-48
2024/01/23 06:44:38;;;;;;;28.08;11.52;;;;;;;9.03;100.00;100408.38;5092054;28;20053;-47
2024/01/23 06:47:05;;;;;;;23.70;12.07;;;;;;;9.12;100.00;100397.84;5092074;28;20039;-47
2024/01/23 06:49:31;;;;;;;17.52;10.20;;;;;;;9.18;100.00;100414.78;5090906;28;20016;-47
2024/01/23 06:51:56;;;;;;;18.88;10.82;;;;;;;9.06;100.00;100421.22;5090736;28;20547;-47
2024/01/23 06:54:22;;;;;;;20.13;13.75;;;;;;;8.80;100.00;100427.13;5091853;28;20016;-47
2024/01/23 06:56:48;;;;;;;21.15;11.60;;;;;;;8.74;100.00;100433.75;5092013;28;20537;-49
2024/01/23 06:59:15;;;;;;;23.52;10.60;;;;;;;8.72;100.00;100427.84;5090576;28;20541;-49
2024/01/23 07:01:41;;;;;;;16.60;9.73;;;;;;;8.71;100.00;100428.00;5091873;28;20043;-49
2024/01/23 07:04:07;;;;;;;17.80;10.05;;;;;;;8.76;100.00;100433.63;5091803;28;20028;-47
2024/01/23 07:06:33;;;;;;;12.80;9.02;;;;;;;8.73;100.00;100441.75;5091785;28;20024;-47
2024/01/23 07:08:59;;;;;;;17.83;10.85;;;;;;;8.68;100.00;100434.34;5091822;28;20016;-47
2024/01/23 07:11:26;;;;;;;14.40;9.18;;;;;;;8.54;100.00;100435.63;5091811;28;20035;-47
2024/01/23 07:13:52;;;;;;;16.15;8.95;;;;;;;8.62;100.00;100439.34;5091794;28;20028;-47
2024/01/23 07:16:18;;;;;;;12.30;8.88;;;;;;;8.57;100.00;100443.22;5091712;28;20103;-47
2024/01/23 07:18:44;;;;;;;13.95;8.02;;;;;;;8.70;100.00;100436.81;5107484;28;20034;-47
2024/01/23 07:21:10;;;;;;;17.13;7.47;;;;;;;8.74;100.00;100441.63;5107352;28;20020;-49
2024/01/23 07:23:36;;;;;;;15.23;8.80;;;;;;;8.77;100.00;100448.34;5091611;28;20074;-50
2024/01/23 07:26:02;;;;;;;15.57;9.82;;;;;;;8.72;100.00;100448.78;5107300;28;20036;-50
2024/01/23 07:28:28;;;;;;;18.42;10.70;;;;;;;8.78;100.00;100444.78;5091346;28;20048;-50
2024/01/23 07:30:54;;;;;;;16.35;11.18;;;;;;;8.78;100.00;100457.88;5091725;28;20032;-50
2024/01/23 07:33:20;;;;;;;13.10;9.55;;;;;;;8.82;100.00;100458.41;5091616;28;20032;-49
2024/01/23 07:35:46;;;;;;;16.25;9.52;;;;;;;8.86;100.00;100457.97;5091587;28;20074;-49
2024/01/23 07:38:12;;;;;;;14.60;8.77;;;;;;;8.99;100.00;100458.47;5091602;28;20501;-50
2024/01/23 07:40:38;;;;;;;15.02;10.68;;;;;;;9.18;100.00;100464.56;5091556;28;20019;-49
2024/01/23 07:43:04;;;;;;;19.13;7.53;;;;;;;9.51;100.00;100464.88;5091419;28;20107;-48
2024/01/23 07:45:30;;;;;;;17.67;11.10;;;;;;;9.67;100.00;100467.66;5090190;28;20048;-47
2024/01/23 07:47:56;;;;;;;21.38;13.13;;;;;;;10.07;100.00;100476.81;5090231;28;20059;-47
2024/01/23 07:50:22;;;;;;;15.88;12.75;;;;;;;10.43;100.00;100473.34;5091494;28;20103;-47
2024/01/23 07:52:48;;;;;;;15.57;10.90;;;;;;;10.93;100.00;100469.97;5090147;28;20579;-47
2024/01/23 07:55:14;;;;;;;19.77;10.93;;;;;;;11.76;100.00;100466.50;5091411;28;20074;-47
2024/01/23 07:57:39;;;;;;;16.15;10.38;;;;;;;12.31;100.00;100467.66;5091480;28;20383;-45
2024/01/23 08:00:07;;;;;;;13.23;10.30;;;;;;;12.06;100.00;100477.41;5091346;28;20065;-45
2024/01/23 08:02:33;;;;;;;17.00;10.90;;;;;;;12.57;100.00;100480.59;5091317;28;20024;-48
2024/01/23 08:04:59;;;;;;;14.05;9.73;;;;;;;13.71;100.00;100481.88;5091415;28;20386;-48
2024/01/23 08:07:25;;;;;;;17.88;9.50;;;;;;;14.28;100.00;100483.19;5092310;28;20393;-48
2024/01/23 08:09:51;;;;;;;20.90;9.88;;;;;;;14.69;100.00;100496.00;5093843;28;20031;-48
2024/01/23 08:12:18;;;;;;;17.80;10.18;;;;;;;15.25;100.00;100492.84;5095083;28;20032;-48
2024/01/23 08:14:44;;;;;;;16.88;10.90;;;;;;;15.52;100.00;100488.66;5093659;28;20047;-48
2024/01/23 08:17:13;;;;;;;23.58;11.32;;;;;;;14.78;100.00;100499.38;5094818;28;20020;-48
2024/01/23 08:19:40;;;;;;;23.00;9.48;;;;;;;14.28;100.00;100493.75;5094824;28;20104;-47
2024/01/23 08:22:06;;;;;;;14.15;8.27;;;;;;;13.79;100.00;100496.81;5094795;28;20480;-46
2024/01/23 08:24:33;;;;;;;14.70;9.45;;;;;;;13.03;100.00;100493.13;5110367;28;20028;-46
2024/01/23 08:26:58;;;;;;;14.90;9.65;;;;;;;12.43;100.00;100494.44;5094726;28;20066;-46
2024/01/23 08:29:25;;;;;;;16.65;10.40;;;;;;;12.21;100.00;100495.97;5093105;28;20091;-46
2024/01/23 08:31:50;;;;;;;23.40;11.05;;;;;;;11.87;100.00;100502.19;5094640;28;20437;-45
2024/01/23 08:34:16;;;;;;;17.33;10.07;;;;;;;11.90;100.00;100509.78;5093245;28;20024;-46
2024/01/23 08:36:42;;;;;;;15.43;9.45;;;;;;;11.85;100.00;100507.63;5094525;28;20474;-46
2024/01/23 08:39:08;;;;;;;18.88;10.68;;;;;;;12.69;100.00;100517.94;5094425;28;20039;-46
2024/01/23 08:41:34;;;;;;;15.40;10.65;;;;;;;13.66;100.00;100513.25;5093141;28;20493;-46
2024/01/23 08:43:59;;;;;;;12.30;8.05;;;;;;;14.41;100.00;100511.63;5094285;28;20478;-48
2024/01/23 08:46:25;;;;;;;14.07;8.82;;;;;;;14.76;100.00;100520.69;5094280;28;20393;-49
2024/01/23 08:48:51;;;;;;;16.58;10.70;;;;;;;15.58;100.00;100529.44;5109970;28;20028;-48
2024/01/23 08:51:17;;;;;;;15.27;7.95;;;;;;;16.35;100.00;100526.06;5092902;28;20063;-46
2024/01/23 08:53:43;;;;;;;19.20;10.10;;;;;;;17.23;100.00;100519.44;5092869;28;20432;-46
2024/01/23 08:56:09;;;;;;;21.27;12.98;;;;;;;17.95;100.00;100521.47;5092781;28;20027;-46
2024/01/23 08:58:35;;;;;;;15.50;8.90;;;;;;;18.55;100.00;100517.94;5094101;28;20031;-46
2024/01/23 09:01:00;;;;;;;16.77;9.05;;;;;;;19.26;100.00;100521.66;5094038;28;20056;-46
2024/01/23 09:03:26;;;;;;;11.85;8.23;;;;;;;20.09;100.00;100510.88;5109570;28;20557;-46
2024/01/23 09:05:52;;;;;;;13.13;8.25;;;;;;;20.10;100.00;100509.84;5093999;28;20052;-46
2024/01/23 09:08:18;;;;;;;14.68;8.05;;;;;;;19.49;100.00;100526.44;5093906;28;20107;-46
2024/01/23 09:10:43;;;;;;;18.20;11.55;;;;;;;18.43;100.00;100530.22;5093767;28;20028;-46
2024/01/23 09:13:09;;;;;;;17.13;14.27;;;;;;;17.44;100.00;100523.78;5093823;28;20397;-46
2024/01/23 09:15:36;;;;;;;22.85;15.98;;;;;;;17.03;100.00;100520.19;5093767;28;20405;-46
2024/01/23 09:18:02;;;;;;;18.45;14.90;;;;;;;16.60;100.00;100511.53;5092507;28;20024;-48
2024/01/23 09:20:28;;;;;;;19.00;12.52;;;;;;;16.61;100.00;100505.25;5092316;28;20039;-48
2024/01/23 09:22:53;;;;;;;18.95;11.07;;;;;;;16.71;100.00;100497.75;5092196;28;20023;-48
2024/01/23 09:25:19;;;;;;;19.60;12.48;;;;;;;17.47;100.00;100496.84;5093501;28;20752;-48
2024/01/23 09:27:46;;;;;;;16.50;11.40;;;;;;;18.02;95.77;100489.59;5092223;28;20081;-47
2024/01/23 09:30:13;;;;;;;12.68;8.48;;;;;;;18.68;95.37;100493.19;5096728;28;20048;-47
2024/01/23 09:32:39;;;;;;;13.52;7.68;;;;;;;18.75;88.84;100488.63;5093372;28;20081;-46
2024/01/23 09:35:06;;;;;;;14.88;7.35;;;;;;;19.06;90.49;100481.81;5093382;28;20031;-46
2024/01/23 09:37:32;;;;;;;15.68;6.57;;;;;;;19.16;84.69;100482.19;5093358;28;20020;-47
2024/01/23 09:39:58;;;;;;;17.20;7.88;;;;;;;19.40;81.98;100483.28;5093287;28;20028;-46
2024/01/23 09:42:25;;;;;;;12.73;6.70;;;;;;;18.72;76.79;100486.41;5093209;28;20024;-46
2024/01/23 09:44:55;;;;;;;15.18;7.22;;;;;;;18.42;81.49;100494.06;5093223;28;20398;-47
2024/01/23 09:47:23;;;;;;;11.63;6.07;;;;;;;18.55;75.97;100483.38;5093445;28;20016;-47
2024/01/23 09:49:51;;;;;;;11.48;7.20;;;;;;;18.62;77.42;100491.34;5093058;28;20020;-48
2024/01/23 09:52:19;;;;;;;17.90;7.97;;;;;;;18.51;79.44;100493.63;5092892;28;20016;-49
2024/01/23 09:54:45;;;;;;;12.27;7.50;;;;;;;18.26;87.03;100489.97;5091773;28;20085;-49
2024/01/23 09:57:12;;;;;;;11.80;6.40;;;;;;;18.21;84.96;100500.41;5092906;28;20052;-48
2024/01/23 09:59:38;;;;;;;16.90;7.82;;;;;;;18.19;89.40;100491.81;5092945;28;20439;-47
2024/01/23 10:02:08;;;;;;;15.82;7.93;;;;;;;18.23;88.26;100495.69;5092753;28;20058;-47
2024/01/23 10:04:35;;;;;;;13.77;6.32;;;;;;;18.10;83.17;100489.38;5108393;28;20032;-47
2024/01/23 10:07:07;;;;;;;11.60;5.68;;;;;;;17.25;81.21;100493.53;5092632;28;20165;-47
2024/01/23 10:09:33;;;;;;;12.18;6.38;;;;;;;16.00;81.55;100497.84;5092785;28;20077;-47
2024/01/23 10:11:59;;;;;;;9.93;6.25;;;;;;;15.67;97.57;100495.72;5108320;28;20028;-46
2024/01/23 10:14:25;;;;;;;14.82;5.60;;;;;;;16.07;100.00;100504.03;5108595;28;20460;-46
2024/01/23 10:16:51;;;;;;;16.02;6.65;;;;;;;15.74;95.24;100504.56;5108258;28;20430;-46
2024/01/23 10:19:17;;;;;;;17.02;6.63;;;;;;;15.79;100.00;100512.75;5092552;28;20036;-46
2024/01/23 10:21:43;;;;;;;11.60;6.88;;;;;;;16.89;100.00;100510.53;5108414;28;20397;-46
2024/01/23 10:24:09;;;;;;;21.48;18.33;;;;;;;18.64;100.00;100507.91;5108068;28;20375;-46
2024/01/23 10:26:35;;;;;;;22.00;14.25;;;;;;;19.97;100.00;100503.81;5092607;28;20110;-48
2024/01/23 10:29:02;;;;;;;20.80;17.67;;;;;;;20.45;100.00;100501.31;5091809;28;20063;-50
2024/01/23 10:31:28;;;;;;;16.88;9.05;;;;;;;20.64;100.00;100506.69;5092631;28;20020;-47
2024/01/23 10:33:55;;;;;;;15.13;7.07;;;;;;;20.54;100.00;100493.84;5107950;28;20185;-49
2024/01/23 10:36:20;;;;;;;12.13;6.20;;;;;;;20.28;100.00;100497.59;5092300;28;20051;-47
2024/01/23 10:38:50;;;;;;;18.00;6.80;;;;;;;19.92;100.00;100499.97;5107923;28;20070;-44
2024/01/23 10:41:18;;;;;;;25.95;9.77;;;;;;;20.19;100.00;100490.91;5108123;28;20034;-44
2024/01/23 10:43:46;;;;;;;17.17;7.50;;;;;;;20.27;100.00;100486.09;5092378;28;20020;-44
2024/01/23 10:46:12;;;;;;;11.20;6.90;;;;;;;20.88;100.00;100481.78;5092092;28;20035;-45
2024/01/23 10:48:38;;;;;;;8.68;6.10;;;;;;;21.63;98.61;100477.94;5092038;28;20041;-44
2024/01/23 10:51:30;;;;;;;13.43;6.55;;;;;;;22.34;92.91;100468.13;5091958;28;20371;-44
2024/01/23 10:54:05;;;;;;;12.70;6.07;;;;;;;23.02;88.29;100471.13;5092097;28;20119;-45
2024/01/23 10:56:55;;;;;;;10.77;5.72;;;;;;;24.22;89.85;100472.88;5092085;28;20043;-46
2024/01/23 10:59:24;;;;;;;16.25;5.80;;;;;;;24.59;86.88;100470.47;5092050;28;20024;-45
2024/01/23 11:01:51;;;;;;;11.60;6.05;;;;;;;24.64;87.58;100475.88;5091928;28;20080;-46
2024/01/23 11:04:17;;;;;;;11.55;5.60;;;;;;;24.82;85.74;100471.25;5091831;28;20027;-45
2024/01/23 11:06:57;;;;;;;13.57;5.85;;;;;;;24.84;79.32;100472.63;5091740;28;20117;-45